Portada
METAR-TAF:

METAR-TAF

Aeropuertos :

Emmen, Suiza

latitud: 47-05-32N, longitud: 8-18-16E, altitud: 426 m

Observación

El informe se hizo hace 38 minutos, a las 12:50 UTC
Viento 2 kt con dirección variable
Temperatura 20°C
Humedad 46%
Presión 1017 hPa
Visibilidad 10 km o más
Escasas nubes a una altura de 5400 ft

METAR: LSME 131250Z VRB02KT 9999 FEW054 20/08 Q1017 RMK BLU+

Hora: 15:28 (13:28 UTC)


TAF: falta

Observaciones y pronósticos meteorológicos de más de 4000 aeropuertos (mensajes METAR y TAF).

Los puntos amarillos y rojos representan las estaciones disponibles.

Ponga el ratón en el punto deseado para ver el nombre de la estación.

Haga clic para ver las observaciones y los pronósticos meteorológicos.

Para cambiar el mapa : haga clic en los botones verdes con una cruz de color negro para hacer un zoom, en el botón verde con un guión para alejar o en las flechas verdes para mapas adyacentes.


METAR-TAF: